Time;durP1;ratioP1;P1;durP2;ratioP2;P2;SDS_P1;SDS_P2;PMS_P1;PMS_P2;Temp;Humidity;BMP_temperature;BMP_pressure;BME280_temperature;BME280_humidity;BME280_pressure;Samples;Min_cycle;Max_cycle;Signal;HPM_P1;HPM_P2
2024/03/03 00:10:12;;;;;;;57.90;29.60;;;;;;;9.79;89.79;100066.08;681452;1264;139410;-78
2024/03/03 00:25:15;;;;;;;53.50;26.30;;;;;;;9.76;89.76;100062.81;681590;1264;139612;-79
2024/03/03 00:40:19;;;;;;;52.30;24.80;;;;;;;9.81;89.71;100052.40;681551;1263;140190;-79
2024/03/03 00:55:23;;;;;;;44.20;23.80;;;;;;;9.76;89.20;100043.25;681551;1267;138678;-78
2024/03/03 01:10:27;;;;;;;45.70;23.30;;;;;;;9.78;89.36;100029.11;681448;1266;138833;-79
2024/03/03 01:25:31;;;;;;;45.30;23.70;;;;;;;9.67;88.79;100025.23;681711;1266;139471;-78
2024/03/03 01:40:34;;;;;;;46.60;22.80;;;;;;;9.52;88.61;100020.21;681561;1264;139957;-79
2024/03/03 01:55:39;;;;;;;44.20;22.10;;;;;;;9.41;88.67;100013.95;681582;1265;139040;-79
2024/03/03 02:10:45;;;;;;;43.20;23.20;;;;;;;9.33;88.47;100008.62;681338;1265;139917;-78
2024/03/03 02:25:49;;;;;;;45.00;23.00;;;;;;;9.15;88.49;100003.34;681610;1263;139029;-78
2024/03/03 02:40:54;;;;;;;45.40;22.00;;;;;;;8.96;88.35;99994.52;681517;1265;138683;-77
2024/03/03 02:56:08;;;;;;;43.50;21.60;;;;;;;8.96;87.41;99991.39;681445;1265;138478;-77
2024/03/03 03:11:14;;;;;;;43.10;22.10;;;;;;;8.90;86.79;99990.46;681489;1263;139581;-77
2024/03/03 03:26:18;;;;;;;42.70;20.80;;;;;;;8.69;86.52;99981.27;681687;1266;139648;-77
2024/03/03 03:41:21;;;;;;;40.90;21.10;;;;;;;8.46;86.79;99985.23;681307;1263;138965;-76
2024/03/03 03:56:25;;;;;;;41.40;20.90;;;;;;;8.33;87.10;99987.92;681404;1261;168795;-77
2024/03/03 04:11:28;;;;;;;36.00;19.60;;;;;;;8.21;87.04;99997.81;681820;1262;139309;-77
2024/03/03 04:26:32;;;;;;;40.40;20.30;;;;;;;8.01;87.09;99995.25;681473;1262;139478;-78
2024/03/03 04:41:35;;;;;;;53.30;25.10;;;;;;;7.78;87.51;99978.63;681385;1266;138744;-78
2024/03/03 04:56:38;;;;;;;40.90;19.10;;;;;;;7.70;87.68;99970.36;681572;1262;139704;-78
2024/03/03 05:11:44;;;;;;;36.40;19.10;;;;;;;7.63;87.31;99987.36;681420;1262;138916;-79
2024/03/03 05:26:47;;;;;;;57.40;26.60;;;;;;;7.48;87.60;99988.52;681406;1262;140172;-78
2024/03/03 05:41:51;;;;;;;57.80;30.40;;;;;;;7.31;88.26;99996.67;681514;1265;138925;-79
2024/03/03 05:56:54;;;;;;;45.00;25.80;;;;;;;7.17;88.93;100001.21;681580;1262;139259;-79
2024/03/03 06:11:59;;;;;;;43.90;20.80;;;;;;;7.17;89.44;100002.42;681420;1265;138824;-79
2024/03/03 06:27:03;;;;;;;64.00;32.20;;;;;;;7.21;90.03;100004.89;681502;1262;139610;-79
2024/03/03 06:42:06;;;;;;;41.60;21.60;;;;;;;8.18;90.78;100001.11;681383;1264;139565;-79
2024/03/03 06:57:09;;;;;;;50.20;25.60;;;;;;;10.18;87.95;100000.52;681682;1264;138647;-80
2024/03/03 07:12:13;;;;;;;84.30;39.60;;;;;;;11.42;83.82;100012.72;681449;1262;141002;-78
2024/03/03 07:27:16;;;;;;;65.30;37.50;;;;;;;11.03;80.42;100019.08;681585;1263;139270;-78
2024/03/03 07:42:19;;;;;;;61.10;31.20;;;;;;;9.56;81.17;100007.29;681547;1274;139402;-79
2024/03/03 07:57:23;;;;;;;74.00;32.00;;;;;;;9.97;81.63;100010.29;681685;1262;138726;-79
2024/03/03 08:12:29;;;;;;;43.20;23.10;;;;;;;12.29;79.30;100014.64;681480;1264;138825;-78
2024/03/03 08:27:39;;;;;;;46.00;24.00;;;;;;;13.83;74.97;100010.96;681475;1266;139081;-77
2024/03/03 08:42:53;;;;;;;51.10;28.70;;;;;;;15.07;70.50;100009.50;681466;1266;139145;-78
2024/03/03 08:57:56;;;;;;;76.00;33.50;;;;;;;15.21;68.73;100004.25;681661;1265;139698;-78
2024/03/03 09:13:00;;;;;;;175.50;58.80;;;;;;;15.03;68.29;99990.61;681488;1265;138867;-78
2024/03/03 09:28:06;;;;;;;117.00;40.20;;;;;;;15.72;67.30;99987.17;681596;1268;138671;-80
2024/03/03 09:43:15;;;;;;;112.50;41.90;;;;;;;15.46;65.16;99987.37;681532;1266;140070;-80
2024/03/03 09:58:19;;;;;;;71.80;33.20;;;;;;;16.44;64.76;99991.27;681536;1265;140074;-79
2024/03/03 10:13:24;;;;;;;65.80;31.20;;;;;;;16.98;63.33;99997.30;681417;1265;138977;-79
2024/03/03 10:28:27;;;;;;;48.20;25.90;;;;;;;16.48;63.10;99997.49;681489;1268;139560;-79
2024/03/03 10:43:31;;;;;;;53.30;25.70;;;;;;;16.20;64.06;99990.67;681304;1263;138179;-79
2024/03/03 10:58:36;;;;;;;60.10;33.60;;;;;;;17.14;62.76;99976.13;681587;1265;138331;-80
2024/03/03 11:13:51;;;;;;;47.10;26.40;;;;;;;17.25;61.67;99970.13;681659;1276;138110;-80
2024/03/03 11:28:57;;;;;;;46.30;26.40;;;;;;;16.74;62.20;99958.83;681612;1270;140125;-79
2024/03/03 11:44:01;;;;;;;45.50;25.40;;;;;;;15.97;63.39;99956.17;681675;1265;138298;-80
2024/03/03 11:59:04;;;;;;;53.80;28.40;;;;;;;14.63;65.05;99946.76;681563;1265;138695;-80
2024/03/03 12:14:09;;;;;;;49.30;26.20;;;;;;;14.25;66.48;99941.50;681593;1266;138775;-79
2024/03/03 12:29:13;;;;;;;221.60;120.10;;;;;;;14.12;67.62;99933.63;681427;1267;138808;-79
2024/03/03 12:44:16;;;;;;;66.80;32.80;;;;;;;14.26;68.18;99927.67;681551;1266;140157;-80
2024/03/03 12:59:20;;;;;;;53.90;31.40;;;;;;;14.27;68.37;99921.25;681295;1267;140505;-79
2024/03/03 13:14:24;;;;;;;53.60;28.60;;;;;;;14.14;68.56;99925.81;681670;1268;139151;-78
2024/03/03 13:29:28;;;;;;;50.90;28.60;;;;;;;13.96;68.26;99916.54;681808;1265;139782;-79
2024/03/03 13:44:34;;;;;;;45.00;25.00;;;;;;;13.94;68.79;99903.55;682044;1265;139198;-79
2024/03/03 13:59:39;;;;;;;41.50;23.70;;;;;;;14.18;68.22;99893.52;681769;1265;138959;-78
2024/03/03 14:14:48;;;;;;;58.10;28.00;;;;;;;14.25;68.23;99894.20;681948;1272;139125;-80
2024/03/03 14:30:00;;;;;;;35.60;19.00;;;;;;;14.36;68.78;99877.75;681830;1265;138927;-80
2024/03/03 14:45:06;;;;;;;36.90;20.50;;;;;;;14.57;68.00;99869.95;682026;1265;138846;-79
2024/03/03 15:00:12;;;;;;;115.50;58.50;;;;;;;14.30;68.23;99866.20;681880;1266;141203;-78
2024/03/03 15:15:21;;;;;;;108.00;44.30;;;;;;;14.12;68.95;99864.45;682263;1266;139146;-79
2024/03/03 15:30:26;;;;;;;173.70;74.30;;;;;;;13.74;69.75;99870.73;682013;1264;140021;-80
2024/03/03 15:45:31;;;;;;;54.80;27.80;;;;;;;13.33;69.88;99872.64;681818;1266;139024;-79
2024/03/03 16:00:39;;;;;;;94.40;42.10;;;;;;;12.86;70.47;99870.65;681392;1266;394208;-80
2024/03/03 16:15:47;;;;;;;84.00;37.50;;;;;;;12.50;70.82;99866.91;681914;1266;139013;-80
2024/03/03 16:30:51;;;;;;;79.80;35.70;;;;;;;12.05;70.70;99863.80;681739;1266;139866;-80
2024/03/03 16:45:56;;;;;;;70.50;36.60;;;;;;;11.70;70.56;99870.05;681654;1263;139326;-79
2024/03/03 17:01:00;;;;;;;49.90;24.60;;;;;;;11.26;70.22;99880.84;681411;1262;139524;-80
2024/03/03 17:16:10;;;;;;;154.10;70.10;;;;;;;11.13;69.74;99899.23;681431;1266;139727;-80
2024/03/03 17:31:14;;;;;;;130.90;52.10;;;;;;;10.64;68.66;99918.52;681515;1266;139627;-80
2024/03/03 17:46:17;;;;;;;65.70;28.10;;;;;;;10.19;68.91;99926.94;681966;1264;138985;-80
2024/03/03 18:01:21;;;;;;;50.10;22.90;;;;;;;9.84;68.58;99931.50;681923;1262;140127;-79
2024/03/03 18:16:25;;;;;;;54.10;23.60;;;;;;;9.63;68.62;99928.30;681558;1263;138609;-79
2024/03/03 18:31:29;;;;;;;39.70;20.30;;;;;;;9.44;68.83;99926.84;681708;1267;138783;-79
2024/03/03 18:46:33;;;;;;;110.10;39.40;;;;;;;9.25;69.49;99920.43;681656;1262;141735;-79
2024/03/03 19:01:36;;;;;;;55.80;24.70;;;;;;;9.25;69.99;99933.58;681681;1265;140068;-78
2024/03/03 19:16:40;;;;;;;61.70;30.70;;;;;;;9.12;70.65;99943.21;681387;1265;139494;-78
2024/03/03 19:31:44;;;;;;;68.50;31.20;;;;;;;9.16;70.65;99949.20;681572;1267;138865;-77
2024/03/03 19:46:47;;;;;;;39.40;17.90;;;;;;;9.17;71.10;99958.84;681327;1264;140129;-77
2024/03/03 20:01:50;;;;;;;67.60;29.30;;;;;;;9.18;71.65;99966.32;681387;1267;138513;-78
2024/03/03 20:16:54;;;;;;;48.40;21.70;;;;;;;9.17;72.48;99955.73;681321;1265;138866;-79
2024/03/03 20:31:58;;;;;;;60.50;25.30;;;;;;;9.19;72.85;99968.45;681750;1265;139895;-79
2024/03/03 20:47:01;;;;;;;46.70;23.00;;;;;;;9.26;72.52;99973.06;681462;1264;139880;-80
2024/03/03 21:02:05;;;;;;;36.50;19.70;;;;;;;9.08;72.70;99980.01;681388;1265;138869;-80
2024/03/03 21:17:08;;;;;;;43.80;19.20;;;;;;;8.93;72.65;99983.82;681454;1265;139630;-80
2024/03/03 21:32:12;;;;;;;31.30;15.00;;;;;;;8.92;72.86;99975.52;681432;1268;138999;-79
2024/03/03 21:47:17;;;;;;;32.50;18.40;;;;;;;8.74;73.55;99979.11;681645;1265;139207;-80
2024/03/03 22:02:21;;;;;;;31.80;13.40;;;;;;;8.47;74.56;99987.48;681536;1262;140382;-79
2024/03/03 22:17:25;;;;;;;29.80;12.70;;;;;;;8.21;75.11;99994.63;681388;1262;139164;-79
2024/03/03 22:32:29;;;;;;;24.20;12.10;;;;;;;7.94;76.80;99994.05;681661;1266;139387;-81
2024/03/03 22:47:37;;;;;;;24.50;12.20;;;;;;;7.45;78.96;99986.65;681339;1262;140136;-81
2024/03/03 23:02:40;;;;;;;22.90;13.10;;;;;;;8.03;77.63;99974.26;681680;1266;138517;-80
2024/03/03 23:17:44;;;;;;;29.30;15.10;;;;;;;8.72;75.66;99967.59;681721;1270;139994;-81
2024/03/03 23:32:48;;;;;;;35.80;15.90;;;;;;;8.40;75.98;99967.65;681760;1262;138512;-80
2024/03/03 23:47:53;;;;;;;35.70;15.80;;;;;;;8.44;77.43;99962.97;681515;1265;139221;-81
